Time;durP1;ratioP1;P1;durP2;ratioP2;P2;SDS_P1;SDS_P2;PMS_P1;PMS_P2;Temp;Humidity;BMP_temperature;BMP_pressure;BME280_temperature;BME280_humidity;BME280_pressure;Samples;Min_cycle;Max_cycle;Signal;HPM_P1;HPM_P2
2021/06/30 00:01:38;;;;;;;;;;;16.90;1.00;;;;;;5068456;28;19999;-61
2021/06/30 00:04:04;;;;;;;;;;;16.90;1.00;;;;;;5069747;28;19909;-62
2021/06/30 00:06:30;;;;;;;;;;;16.90;1.00;;;;;;5068236;28;19916;-62
2021/06/30 00:08:55;;;;;;;;;;;17.00;1.00;;;;;;5068490;28;19908;-62
2021/06/30 00:11:22;;;;;;;;;;;17.00;1.00;;;;;;5068922;28;20291;-62
2021/06/30 00:13:47;;;;;;;;;;;16.90;1.00;;;;;;5069308;28;20006;-63
2021/06/30 00:16:13;;;;;;;;;;;16.90;1.00;;;;;;5068592;28;20265;-62
2021/06/30 00:18:38;;;;;;;;;;;17.00;1.00;;;;;;5068786;28;19908;-62
2021/06/30 00:21:05;;;;;;;;;;;17.00;1.00;;;;;;5068776;28;19912;-64
2021/06/30 00:23:30;;;;;;;;;;;17.00;1.00;;;;;;5047987;28;19913;-65
2021/06/30 00:25:56;;;;;;;;;;;17.00;1.00;;;;;;5068243;28;20356;-66
2021/06/30 00:28:21;;;;;;;;;;;17.00;1.00;;;;;;5068546;28;19934;-64
2021/06/30 00:30:47;;;;;;;;;;;17.00;1.00;;;;;;5068470;28;20367;-64
2021/06/30 00:33:13;;;;;;;;;;;16.90;1.00;;;;;;5069064;28;20222;-64
2021/06/30 00:35:38;;;;;;;;;;;16.90;1.00;;;;;;5068114;28;19908;-64
2021/06/30 00:38:03;;;;;;;;;;;16.90;1.00;;;;;;5067639;28;19952;-64
2021/06/30 00:40:30;;;;;;;;;;;16.90;1.00;;;;;;5069014;28;19908;-64
2021/06/30 00:42:55;;;;;;;;;;;16.90;1.00;;;;;;5070864;28;19909;-65
2021/06/30 00:45:21;;;;;;;;;;;16.90;1.00;;;;;;5070963;28;20285;-62
2021/06/30 00:47:47;;;;;;;;;;;16.90;1.00;;;;;;5063903;28;19932;-64
2021/06/30 00:50:13;;;;;;;;;;;16.90;1.00;;;;;;5072423;28;19909;-65
2021/06/30 00:52:39;;;;;;;;;;;16.90;1.00;;;;;;5071119;28;19915;-65
2021/06/30 00:55:05;;;;;;;;;;;16.90;1.00;;;;;;5072846;28;20365;-65
2021/06/30 00:57:30;;;;;;;;;;;16.90;1.00;;;;;;5071967;28;20364;-64
2021/06/30 00:59:56;;;;;;;;;;;16.90;1.00;;;;;;5072430;28;19969;-63
2021/06/30 01:02:22;;;;;;;;;;;16.80;1.00;;;;;;5069412;28;19909;-63
2021/06/30 01:04:47;;;;;;;;;;;16.80;1.00;;;;;;5072304;28;19908;-63
2021/06/30 01:07:13;;;;;;;;;;;16.70;1.00;;;;;;5070162;28;19912;-63
2021/06/30 01:09:38;;;;;;;;;;;16.60;1.00;;;;;;5071899;28;19909;-63
2021/06/30 01:12:04;;;;;;;;;;;16.60;1.00;;;;;;5072225;28;19909;-63
2021/06/30 01:14:30;;;;;;;;;;;16.60;1.00;;;;;;5072265;28;19970;-63
2021/06/30 01:16:56;;;;;;;;;;;16.50;1.00;;;;;;5071871;28;19999;-63
2021/06/30 01:19:23;;;;;;;;;;;16.50;1.00;;;;;;5071686;28;20234;-63
2021/06/30 01:21:48;;;;;;;;;;;16.40;1.00;;;;;;5064328;28;19972;-63
2021/06/30 01:24:14;;;;;;;;;;;16.50;1.00;;;;;;5057724;28;20357;-62
2021/06/30 01:26:40;;;;;;;;;;;16.50;1.00;;;;;;5072011;28;20230;-62
2021/06/30 01:29:06;;;;;;;;;;;16.50;1.00;;;;;;5071340;28;19976;-61
2021/06/30 01:31:31;;;;;;;;;;;16.40;1.00;;;;;;5071024;28;19924;-63
2021/06/30 01:33:57;;;;;;;;;;;16.50;1.00;;;;;;5071693;28;19909;-63
2021/06/30 01:36:22;;;;;;;;;;;16.50;1.00;;;;;;5071030;28;19917;-63
2021/06/30 01:38:48;;;;;;;;;;;16.40;1.00;;;;;;5070727;28;20007;-63
2021/06/30 01:41:14;;;;;;;;;;;16.40;1.00;;;;;;5071486;28;19912;-62
2021/06/30 01:43:40;;;;;;;;;;;16.40;1.00;;;;;;5071518;28;19912;-62
2021/06/30 01:46:06;;;;;;;;;;;16.40;1.00;;;;;;5069647;28;19924;-62
2021/06/30 01:48:32;;;;;;;;;;;16.40;1.00;;;;;;5071082;28;19908;-62
2021/06/30 01:50:57;;;;;;;;;;;16.40;1.00;;;;;;5070946;28;20318;-62
2021/06/30 01:53:23;;;;;;;;;;;16.30;1.00;;;;;;5069848;28;19916;-63
2021/06/30 01:55:48;;;;;;;;;;;16.30;1.00;;;;;;5070667;28;19978;-63
2021/06/30 01:58:22;;;;;;;;;;;16.30;1.00;;;;;;5070312;28;19990;-62
2021/06/30 02:00:51;;;;;;;;;;;16.30;1.00;;;;;;5071091;28;19919;-63
2021/06/30 02:03:17;;;;;;;;;;;16.20;1.00;;;;;;5069729;28;19994;-62
2021/06/30 02:05:43;;;;;;;;;;;16.10;1.00;;;;;;5071292;28;20020;-62
2021/06/30 02:08:08;;;;;;;;;;;16.00;1.00;;;;;;5069148;28;20007;-63
2021/06/30 02:10:34;;;;;;;;;;;16.00;1.00;;;;;;5071176;28;19914;-63
2021/06/30 02:13:00;;;;;;;;;;;15.90;1.00;;;;;;5071215;28;19912;-63
2021/06/30 02:15:28;;;;;;;;;;;15.90;1.00;;;;;;5071189;28;20368;-63
2021/06/30 02:17:55;;;;;;;;;;;15.90;1.00;;;;;;5070088;28;19974;-63
2021/06/30 02:20:20;;;;;;;;;;;15.90;1.00;;;;;;5071044;28;19923;-62
2021/06/30 02:22:46;;;;;;;;;;;15.90;1.00;;;;;;5069770;28;19909;-63
2021/06/30 02:25:13;;;;;;;;;;;15.90;1.00;;;;;;5053301;28;19981;-62
2021/06/30 02:27:39;;;;;;;;;;;15.90;1.00;;;;;;5050404;28;20245;-63
2021/06/30 02:30:06;;;;;;;;;;;15.90;1.00;;;;;;5050437;28;19962;-63
2021/06/30 02:32:32;;;;;;;;;;;15.90;1.00;;;;;;5050212;28;20004;-63
2021/06/30 02:34:57;;;;;;;;;;;15.90;1.00;;;;;;5051156;28;20340;-63
2021/06/30 02:37:23;;;;;;;;;;;15.80;1.00;;;;;;5048742;28;19916;-63
2021/06/30 02:39:48;;;;;;;;;;;15.80;1.00;;;;;;5050905;28;19971;-62
2021/06/30 02:42:14;;;;;;;;;;;15.80;1.00;;;;;;5050178;28;19915;-60
2021/06/30 02:44:39;;;;;;;;;;;15.70;1.00;;;;;;5050941;28;20369;-62
2021/06/30 02:47:05;;;;;;;;;;;15.70;1.00;;;;;;5049948;28;19967;-65
2021/06/30 02:49:30;;;;;;;;;;;15.60;1.00;;;;;;5050151;28;20290;-63
2021/06/30 02:51:56;;;;;;;;;;;15.60;1.00;;;;;;5048757;28;19916;-63
2021/06/30 02:54:21;;;;;;;;;;;15.50;1.00;;;;;;5051502;28;19999;-63
2021/06/30 02:56:47;;;;;;;;;;;15.50;1.00;;;;;;5070296;28;19944;-63
2021/06/30 02:59:12;;;;;;;;;;;15.40;1.00;;;;;;5069891;28;19916;-62
2021/06/30 03:01:38;;;;;;;;;;;15.30;1.00;;;;;;5062513;28;19931;-63
2021/06/30 03:04:03;;;;;;;;;;;15.20;1.00;;;;;;5050420;28;19908;-63
2021/06/30 03:06:29;;;;;;;;;;;15.20;1.00;;;;;;5048628;28;19913;-64
2021/06/30 03:08:54;;;;;;;;;;;15.10;1.00;;;;;;5063739;28;19960;-65
2021/06/30 03:11:19;;;;;;;;;;;15.10;1.00;;;;;;5069594;28;19917;-64
2021/06/30 03:13:45;;;;;;;;;;;15.10;1.00;;;;;;5070075;28;20365;-63
2021/06/30 03:16:13;;;;;;;;;;;15.00;1.00;;;;;;5069652;28;19908;-63
2021/06/30 03:18:38;;;;;;;;;;;15.00;1.00;;;;;;5068949;28;19909;-64
2021/06/30 03:21:04;;;;;;;;;;;15.00;1.00;;;;;;5069184;28;19908;-64
2021/06/30 03:23:29;;;;;;;;;;;14.90;1.00;;;;;;5049021;28;20594;-64
2021/06/30 03:25:55;;;;;;;;;;;14.90;1.00;;;;;;5068872;28;19962;-64
2021/06/30 03:28:20;;;;;;;;;;;14.80;1.00;;;;;;5069026;28;19916;-64
2021/06/30 03:30:47;;;;;;;;;;;14.90;1.00;;;;;;5068827;28;19954;-63
2021/06/30 03:33:12;;;;;;;;;;;14.80;1.00;;;;;;5069301;28;19935;-63
2021/06/30 03:35:38;;;;;;;;;;;14.80;1.00;;;;;;5069057;28;19916;-64
2021/06/30 03:38:03;;;;;;;;;;;14.70;1.00;;;;;;5068176;28;19955;-63
2021/06/30 03:40:29;;;;;;;;;;;14.60;1.00;;;;;;5069638;28;19918;-63
2021/06/30 03:42:54;;;;;;;;;;;14.60;1.00;;;;;;5069293;28;20126;-63
2021/06/30 03:45:20;;;;;;;;;;;14.50;1.00;;;;;;5070835;28;19961;-64
2021/06/30 03:47:45;;;;;;;;;;;14.50;1.00;;;;;;5060962;28;19945;-64
2021/06/30 03:50:11;;;;;;;;;;;14.40;1.00;;;;;;5068860;28;19924;-63
2021/06/30 03:52:36;;;;;;;;;;;14.40;1.00;;;;;;5067671;28;20411;-63
2021/06/30 03:55:02;;;;;;;;;;;14.30;1.00;;;;;;5069149;28;19920;-63
2021/06/30 03:57:28;;;;;;;;;;;14.30;1.00;;;;;;5068391;28;19920;-64
2021/06/30 03:59:53;;;;;;;;;;;14.20;1.00;;;;;;5069353;28;19916;-62
2021/06/30 04:02:19;;;;;;;;;;;14.20;1.00;;;;;;5068451;28;19912;-63
2021/06/30 04:04:44;;;;;;;;;;;14.20;1.00;;;;;;5069018;28;19999;-65
2021/06/30 04:07:10;;;;;;;;;;;14.20;1.00;;;;;;5067174;28;20134;-64
2021/06/30 04:09:36;;;;;;;;;;;14.20;1.00;;;;;;5068947;28;19908;-63
2021/06/30 04:12:02;;;;;;;;;;;14.20;1.00;;;;;;5068853;28;20388;-64
2021/06/30 04:14:27;;;;;;;;;;;14.20;1.00;;;;;;5069563;28;20296;-63
2021/06/30 04:16:53;;;;;;;;;;;14.20;1.00;;;;;;5068270;28;19923;-64
2021/06/30 04:19:18;;;;;;;;;;;14.20;1.00;;;;;;5064872;28;20190;-63
2021/06/30 04:21:44;;;;;;;;;;;14.20;1.00;;;;;;5056186;28;20008;-64
2021/06/30 04:24:09;;;;;;;;;;;14.30;1.00;;;;;;5055568;28;19920;-63
2021/06/30 04:26:35;;;;;;;;;;;14.30;1.00;;;;;;5052749;28;20047;-63
2021/06/30 04:29:01;;;;;;;;;;;14.30;1.00;;;;;;5051521;28;19917;-63
2021/06/30 04:31:27;;;;;;;;;;;14.30;1.00;;;;;;5050095;28;19917;-62
2021/06/30 04:33:52;;;;;;;;;;;14.40;1.00;;;;;;5052588;28;19909;-63
2021/06/30 04:36:17;;;;;;;;;;;14.50;1.00;;;;;;5061028;28;19919;-64
2021/06/30 04:38:43;;;;;;;;;;;14.50;1.00;;;;;;5071482;28;20034;-63
2021/06/30 04:41:10;;;;;;;;;;;14.60;1.00;;;;;;5072361;28;20700;-64
2021/06/30 04:43:36;;;;;;;;;;;14.70;1.00;;;;;;5072718;28;19908;-62
2021/06/30 04:46:02;;;;;;;;;;;14.80;1.00;;;;;;5070417;28;19916;-63
2021/06/30 04:48:27;;;;;;;;;;;15.20;1.00;;;;;;5069822;28;20011;-64
2021/06/30 04:50:52;;;;;;;;;;;15.50;1.00;;;;;;5069827;28;19960;-64
2021/06/30 04:53:20;;;;;;;;;;;15.70;1.00;;;;;;5069150;28;19981;-64
2021/06/30 04:55:46;;;;;;;;;;;15.80;1.00;;;;;;5056833;28;20362;-64
2021/06/30 04:58:11;;;;;;;;;;;16.00;1.00;;;;;;5049707;28;19962;-64
2021/06/30 05:00:37;;;;;;;;;;;16.10;1.00;;;;;;5049626;28;19931;-62
2021/06/30 05:03:02;;;;;;;;;;;16.20;99.90;;;;;;5050109;28;19909;-64
2021/06/30 05:05:28;;;;;;;;;;;16.20;99.90;;;;;;5049758;28;19912;-64
2021/06/30 05:07:55;;;;;;;;;;;16.10;99.90;;;;;;5054188;28;19920;-63
2021/06/30 05:10:20;;;;;;;;;;;15.90;99.90;;;;;;5070392;28;20011;-62
2021/06/30 05:12:46;;;;;;;;;;;15.80;99.90;;;;;;5061514;28;19967;-61
2021/06/30 05:15:11;;;;;;;;;;;15.70;1.00;;;;;;5067646;28;20395;-65
2021/06/30 05:17:37;;;;;;;;;;;15.70;1.00;;;;;;5068792;28;19912;-65
2021/06/30 05:20:03;;;;;;;;;;;15.80;1.00;;;;;;5070097;28;19909;-66
2021/06/30 05:22:28;;;;;;;;;;;15.80;1.00;;;;;;5068599;28;19916;-64
2021/06/30 05:24:54;;;;;;;;;;;15.90;1.00;;;;;;5061144;28;19912;-65
2021/06/30 05:27:19;;;;;;;;;;;15.80;99.90;;;;;;5072100;28;20146;-62
2021/06/30 05:29:45;;;;;;;;;;;15.80;99.90;;;;;;5072045;28;20296;-62
2021/06/30 05:32:10;;;;;;;;;;;15.70;1.00;;;;;;5072174;28;19989;-63
2021/06/30 05:34:36;;;;;;;;;;;15.90;1.00;;;;;;5072888;28;19980;-61
2021/06/30 05:37:01;;;;;;;;;;;16.00;99.90;;;;;;5071520;28;19916;-63
2021/06/30 05:39:27;;;;;;;;;;;16.10;99.90;;;;;;5068373;28;19912;-62
2021/06/30 05:41:52;;;;;;;;;;;16.30;99.90;;;;;;5068557;28;19912;-62
2021/06/30 05:44:18;;;;;;;;;;;16.40;99.90;;;;;;5069420;28;19971;-64
2021/06/30 05:46:44;;;;;;;;;;;16.50;1.00;;;;;;5068623;28;19909;-58
2021/06/30 05:49:13;;;;;;;;;;;16.40;1.00;;;;;;5069111;28;19913;-63
2021/06/30 05:51:39;;;;;;;;;;;16.40;1.00;;;;;;5066809;28;19948;-62
2021/06/30 05:54:05;;;;;;;;;;;16.30;1.00;;;;;;5068782;28;19908;-64
2021/06/30 05:56:30;;;;;;;;;;;16.60;1.00;;;;;;5068826;28;19913;-64
2021/06/30 05:58:56;;;;;;;;;;;17.00;1.00;;;;;;5068684;28;19912;-64
2021/06/30 06:01:21;;;;;;;;;;;17.20;99.90;;;;;;5068418;28;19908;-64
2021/06/30 06:03:47;;;;;;;;;;;17.70;99.90;;;;;;5068378;28;19908;-63
2021/06/30 06:06:13;;;;;;;;;;;19.00;1.00;;;;;;5067983;28;19920;-64
2021/06/30 06:08:40;;;;;;;;;;;19.90;99.90;;;;;;5067182;28;19908;-64
2021/06/30 06:11:10;;;;;;;;;;;20.70;1.00;;;;;;5068105;28;19912;-64
2021/06/30 06:13:36;;;;;;;;;;;22.10;1.00;;;;;;5068536;28;19980;-64
2021/06/30 06:16:02;;;;;;;;;;;22.50;99.90;;;;;;5068175;28;19924;-64
2021/06/30 06:18:27;;;;;;;;;;;22.10;99.90;;;;;;5067125;28;19920;-62
2021/06/30 06:20:53;;;;;;;;;;;21.40;99.90;;;;;;5066105;28;19946;-63
2021/06/30 06:23:18;;;;;;;;;;;20.80;99.90;;;;;;5067512;28;19934;-63
2021/06/30 06:25:44;;;;;;;;;;;20.40;99.90;;;;;;5050737;28;20027;-67
2021/06/30 06:28:09;;;;;;;;;;;19.90;99.90;;;;;;5048945;28;20297;-64
2021/06/30 06:30:35;;;;;;;;;;;19.80;1.00;;;;;;5050389;28;19909;-61
2021/06/30 06:33:00;;;;;;;;;;;19.70;1.00;;;;;;5055444;28;19927;-63
2021/06/30 06:35:26;;;;;;;;;;;20.00;1.00;;;;;;5060011;28;19917;-63
2021/06/30 06:37:51;;;;;;;;;;;20.00;1.00;;;;;;5056973;28;19913;-62
2021/06/30 06:40:17;;;;;;;;;;;20.10;99.90;;;;;;5060247;28;19929;-64
2021/06/30 06:42:43;;;;;;;;;;;20.10;99.90;;;;;;5057026;28;19908;-64
2021/06/30 06:45:09;;;;;;;;;;;20.10;99.90;;;;;;5050505;28;19979;-64
2021/06/30 06:47:35;;;;;;;;;;;20.10;99.90;;;;;;5063896;28;19913;-63
2021/06/30 06:50:00;;;;;;;;;;;20.50;99.90;;;;;;5057902;28;19917;-60
2021/06/30 06:52:26;;;;;;;;;;;20.70;99.90;;;;;;5045930;28;19915;-62
2021/06/30 06:54:51;;;;;;;;;;;20.60;99.90;;;;;;5055637;28;19908;-63
2021/06/30 06:57:17;;;;;;;;;;;20.60;99.90;;;;;;5068767;28;19913;-63
2021/06/30 06:59:43;;;;;;;;;;;20.60;99.90;;;;;;5069653;28;19958;-64
2021/06/30 07:02:08;;;;;;;;;;;20.50;99.90;;;;;;5069285;28;20309;-63
2021/06/30 07:04:34;;;;;;;;;;;20.50;99.90;;;;;;5069936;28;19919;-64
2021/06/30 07:06:59;;;;;;;;;;;20.40;99.90;;;;;;5068643;28;19919;-63
2021/06/30 07:09:25;;;;;;;;;;;20.40;99.90;;;;;;5069226;28;19912;-65
2021/06/30 07:11:51;;;;;;;;;;;20.40;99.90;;;;;;5069391;28;20270;-64
2021/06/30 07:14:16;;;;;;;;;;;20.30;99.90;;;;;;5070148;28;20003;-64
2021/06/30 07:16:42;;;;;;;;;;;20.80;99.90;;;;;;5069759;28;19912;-63
2021/06/30 07:19:07;;;;;;;;;;;21.00;99.90;;;;;;5069511;28;20333;-64
2021/06/30 07:21:33;;;;;;;;;;;20.80;99.90;;;;;;5068560;28;20347;-63
2021/06/30 07:24:00;;;;;;;;;;;21.00;99.90;;;;;;5066030;28;19925;-65
2021/06/30 07:26:25;;;;;;;;;;;21.50;99.90;;;;;;5049368;28;19923;-64
2021/06/30 07:28:52;;;;;;;;;;;21.90;99.90;;;;;;5048943;28;19909;-64
2021/06/30 07:31:18;;;;;;;;;;;23.00;99.90;;;;;;5049086;28;19909;-64
2021/06/30 07:33:44;;;;;;;;;;;23.70;99.90;;;;;;5049350;28;19923;-64
2021/06/30 07:36:11;;;;;;;;;;;24.20;99.90;;;;;;5047243;28;20354;-63
2021/06/30 07:38:37;;;;;;;;;;;24.40;99.90;;;;;;5048066;28;19913;-60
2021/06/30 07:41:04;;;;;;;;;;;24.30;99.90;;;;;;5049292;28;20430;-62
2021/06/30 07:43:30;;;;;;;;;;;24.20;99.90;;;;;;5049065;28;19909;-60
2021/06/30 07:45:55;;;;;;;;;;;23.70;99.90;;;;;;5049105;28;19908;-63
2021/06/30 07:48:21;;;;;;;;;;;23.10;99.90;;;;;;5048550;28;19916;-63
2021/06/30 07:50:47;;;;;;;;;;;22.80;99.90;;;;;;5048981;28;19908;-62
2021/06/30 07:53:13;;;;;;;;;;;22.40;99.90;;;;;;5048106;28;20237;-62
2021/06/30 07:55:38;;;;;;;;;;;22.10;99.90;;;;;;5060705;28;19912;-63
2021/06/30 07:58:04;;;;;;;;;;;21.90;99.90;;;;;;5068295;28;19924;-64
2021/06/30 08:00:29;;;;;;;;;;;21.80;99.90;;;;;;5068649;28;19927;-63
2021/06/30 08:02:55;;;;;;;;;;;21.50;99.90;;;;;;5068757;28;20317;-63
2021/06/30 08:05:20;;;;;;;;;;;21.70;99.90;;;;;;5069007;28;19913;-63
2021/06/30 08:07:46;;;;;;;;;;;22.10;99.90;;;;;;5066879;28;20170;-63
2021/06/30 08:10:11;;;;;;;;;;;23.30;99.90;;;;;;5069199;28;20355;-63
2021/06/30 08:12:37;;;;;;;;;;;26.00;99.90;;;;;;5068631;28;19915;-64
2021/06/30 08:15:04;;;;;;;;;;;28.80;99.90;;;;;;5068571;28;19908;-63
2021/06/30 08:17:29;;;;;;;;;;;30.50;99.90;;;;;;5067754;28;20335;-64
2021/06/30 08:19:55;;;;;;;;;;;31.10;99.90;;;;;;5068487;28;19916;-64
2021/06/30 08:22:20;;;;;;;;;;;32.10;99.90;;;;;;5066784;28;20323;-64
2021/06/30 08:24:46;;;;;;;;;;;33.00;99.90;;;;;;5055249;28;19912;-65
2021/06/30 08:27:12;;;;;;;;;;;33.30;99.90;;;;;;5048307;28;20004;-65
2021/06/30 08:29:39;;;;;;;;;;;34.20;99.90;;;;;;5048849;28;20289;-64
2021/06/30 08:32:05;;;;;;;;;;;36.00;99.90;;;;;;5047816;28;20016;-64
2021/06/30 08:34:30;;;;;;;;;;;36.90;99.90;;;;;;5048674;28;19958;-64
2021/06/30 08:37:01;;;;;;;;;;;36.10;99.90;;;;;;5047729;28;19922;-64
2021/06/30 08:39:27;;;;;;;;;;;35.70;99.90;;;;;;5048527;28;19999;-64
2021/06/30 08:41:52;;;;;;;;;;;36.30;99.90;;;;;;5048620;28;19993;-64
2021/06/30 08:44:18;;;;;;;;;;;35.60;99.90;;;;;;5048722;28;19916;-64
2021/06/30 08:46:44;;;;;;;;;;;35.40;99.90;;;;;;5047557;28;20322;-64
2021/06/30 08:49:10;;;;;;;;;;;36.40;99.90;;;;;;5048275;28;19912;-64
2021/06/30 08:51:37;;;;;;;;;;;35.40;99.90;;;;;;5047443;28;20329;-64
2021/06/30 08:54:03;;;;;;;;;;;35.00;96.80;;;;;;5047692;28;20390;-64
2021/06/30 08:56:31;;;;;;;;;;;35.00;93.70;;;;;;5066668;28;19912;-64
2021/06/30 08:58:58;;;;;;;;;;;35.60;90.30;;;;;;5067679;28;19909;-64
2021/06/30 09:01:27;;;;;;;;;;;34.70;82.00;;;;;;5066441;28;19912;-64
2021/06/30 09:03:55;;;;;;;;;;;33.60;74.90;;;;;;5070552;28;19908;-64
2021/06/30 09:06:21;;;;;;;;;;;33.00;71.00;;;;;;5071167;28;19912;-65
2021/06/30 09:08:46;;;;;;;;;;;33.60;68.50;;;;;;5070775;28;20291;-64
2021/06/30 09:11:16;;;;;;;;;;;33.60;63.50;;;;;;5072237;28;20041;-63
2021/06/30 09:13:43;;;;;;;;;;;32.60;59.50;;;;;;5072367;28;20353;-64
2021/06/30 09:16:08;;;;;;;;;;;32.00;57.20;;;;;;5072169;28;20370;-64
2021/06/30 09:18:36;;;;;;;;;;;32.90;57.30;;;;;;5071311;28;19912;-64
2021/06/30 09:21:20;;;;;;;;;;;34.20;56.40;;;;;;5071251;28;19961;-63
2021/06/30 09:24:17;;;;;;;;;;;33.10;51.50;;;;;;5052930;28;19909;-64
2021/06/30 09:26:48;;;;;;;;;;;31.70;49.80;;;;;;5070863;28;19919;-64
2021/06/30 09:29:14;;;;;;;;;;;30.70;50.50;;;;;;5071396;28;19912;-63
2021/06/30 09:31:45;;;;;;;;;;;29.90;50.40;;;;;;5071168;28;19981;-63
2021/06/30 09:34:11;;;;;;;;;;;28.60;51.20;;;;;;5072073;28;19981;-64
2021/06/30 09:36:45;;;;;;;;;;;26.40;50.90;;;;;;5070481;28;20508;-63
2021/06/30 09:39:12;;;;;;;;;;;26.20;53.60;;;;;;5071274;28;19912;-63
2021/06/30 09:41:39;;;;;;;;;;;25.40;55.40;;;;;;5069976;28;19909;-63
2021/06/30 09:44:05;;;;;;;;;;;24.80;57.40;;;;;;5071714;28;19920;-63
2021/06/30 09:46:31;;;;;;;;;;;24.80;62.10;;;;;;5070920;28;19908;-63
2021/06/30 09:48:58;;;;;;;;;;;24.70;66.10;;;;;;5062110;28;19916;-63
2021/06/30 09:51:24;;;;;;;;;;;24.80;71.30;;;;;;5070584;28;19920;-62
2021/06/30 09:53:50;;;;;;;;;;;25.00;73.70;;;;;;5070226;28;19916;-64
2021/06/30 09:56:38;;;;;;;;;;;25.20;76.40;;;;;;5071126;28;19923;-64
2021/06/30 09:59:09;;;;;;;;;;;25.90;79.90;;;;;;5070323;28;20247;-65
2021/06/30 10:01:36;;;;;;;;;;;26.40;81.70;;;;;;5070541;28;19908;-65
2021/06/30 10:04:01;;;;;;;;;;;26.60;82.80;;;;;;5071689;28;19980;-64
2021/06/30 10:06:34;;;;;;;;;;;25.60;79.70;;;;;;5070536;28;19909;-63
2021/06/30 10:09:02;;;;;;;;;;;25.40;82.10;;;;;;5069795;28;20385;-64
2021/06/30 10:11:28;;;;;;;;;;;25.30;85.20;;;;;;5070959;28;19923;-63
2021/06/30 10:13:55;;;;;;;;;;;24.40;84.30;;;;;;5070562;28;19999;-63
2021/06/30 10:16:22;;;;;;;;;;;23.40;85.40;;;;;;5069312;28;19916;-63
2021/06/30 10:18:51;;;;;;;;;;;23.00;88.60;;;;;;5070236;28;20310;-63
2021/06/30 10:21:18;;;;;;;;;;;22.80;91.20;;;;;;5070592;28;20365;-63
2021/06/30 10:23:43;;;;;;;;;;;22.50;99.90;;;;;;5069820;28;19909;-63
2021/06/30 10:26:09;;;;;;;;;;;22.30;94.10;;;;;;5051242;28;19932;-63
2021/06/30 10:28:35;;;;;;;;;;;22.40;95.90;;;;;;5049827;28;19913;-63
2021/06/30 10:31:01;;;;;;;;;;;22.40;97.30;;;;;;5050044;28;19908;-64
2021/06/30 10:33:30;;;;;;;;;;;22.40;99.00;;;;;;5050703;28;19916;-63
2021/06/30 10:35:55;;;;;;;;;;;22.20;99.90;;;;;;5049803;28;20448;-63
2021/06/30 10:38:21;;;;;;;;;;;22.00;99.90;;;;;;5048954;28;19909;-63
2021/06/30 10:40:48;;;;;;;;;;;22.00;99.90;;;;;;5049990;28;20310;-63
2021/06/30 10:43:13;;;;;;;;;;;22.00;99.90;;;;;;5050012;28;19970;-63
2021/06/30 10:45:42;;;;;;;;;;;22.00;99.90;;;;;;5050174;28;19955;-64
2021/06/30 10:48:09;;;;;;;;;;;22.20;99.90;;;;;;5049553;28;20376;-64
2021/06/30 10:50:38;;;;;;;;;;;22.90;99.90;;;;;;5050369;28;20380;-63
2021/06/30 10:53:04;;;;;;;;;;;23.50;99.90;;;;;;5067194;28;19913;-64
2021/06/30 10:55:33;;;;;;;;;;;24.00;99.90;;;;;;5069071;28;20337;-64
2021/06/30 10:58:10;;;;;;;;;;;24.20;99.90;;;;;;5068927;28;19913;-64
2021/06/30 11:00:37;;;;;;;;;;;24.20;99.90;;;;;;5061596;28;19936;-64
2021/06/30 11:03:22;;;;;;;;;;;24.10;99.90;;;;;;5069845;28;19984;-64
2021/06/30 11:05:47;;;;;;;;;;;23.90;99.90;;;;;;5051595;28;20002;-63
2021/06/30 11:08:32;;;;;;;;;;;23.50;99.90;;;;;;5062512;28;19959;-63
2021/06/30 11:10:57;;;;;;;;;;;23.00;99.90;;;;;;5066066;28;19927;-63
2021/06/30 11:13:43;;;;;;;;;;;23.40;99.90;;;;;;5062127;28;20300;-64
2021/06/30 11:16:08;;;;;;;;;;;23.70;99.90;;;;;;5069147;28;19912;-65
2021/06/30 11:18:33;;;;;;;;;;;24.70;99.90;;;;;;5068582;28;20299;-64
2021/06/30 11:21:03;;;;;;;;;;;25.10;99.90;;;;;;5069372;28;19952;-63
2021/06/30 11:23:29;;;;;;;;;;;25.30;99.90;;;;;;5062718;28;19913;-64
2021/06/30 11:25:56;;;;;;;;;;;25.60;99.90;;;;;;5051206;28;19920;-64
2021/06/30 11:28:29;;;;;;;;;;;25.60;99.90;;;;;;5049207;28;19995;-64
2021/06/30 11:30:55;;;;;;;;;;;25.50;99.90;;;;;;5049138;28;20259;-63
2021/06/30 11:33:20;;;;;;;;;;;25.00;99.90;;;;;;5049677;28;19917;-64
2021/06/30 11:35:46;;;;;;;;;;;24.60;99.90;;;;;;5048825;28;20346;-66
2021/06/30 11:38:13;;;;;;;;;;;24.20;99.90;;;;;;5047766;28;19931;-65
2021/06/30 11:41:05;;;;;;;;;;;24.00;99.90;;;;;;5049496;28;20270;-66
2021/06/30 11:43:34;;;;;;;;;;;24.00;99.90;;;;;;5048921;28;19913;-63
2021/06/30 11:46:01;;;;;;;;;;;24.30;99.90;;;;;;5049250;28;19924;-66
2021/06/30 11:48:28;;;;;;;;;;;24.90;99.90;;;;;;5048980;28;19931;-64
2021/06/30 11:50:55;;;;;;;;;;;25.60;99.90;;;;;;5048821;28;19912;-65
2021/06/30 11:53:53;;;;;;;;;;;26.10;99.90;;;;;;5048186;28;19926;-65
2021/06/30 11:56:24;;;;;;;;;;;26.70;99.90;;;;;;5034079;28;19923;-65
2021/06/30 11:58:54;;;;;;;;;;;27.00;99.90;;;;;;5049092;28;19986;-65
2021/06/30 12:01:21;;;;;;;;;;;26.90;99.90;;;;;;5049271;28;20321;-64
2021/06/30 12:03:47;;;;;;;;;;;26.20;99.90;;;;;;5049271;28;19909;-64
2021/06/30 12:06:22;;;;;;;;;;;25.90;99.90;;;;;;5049205;28;20377;-63
2021/06/30 12:09:06;;;;;;;;;;;25.50;99.90;;;;;;5062242;28;20014;-63
2021/06/30 12:11:34;;;;;;;;;;;25.00;99.90;;;;;;5069183;28;19916;-63
2021/06/30 12:14:12;;;;;;;;;;;24.60;99.90;;;;;;5069299;28;20007;-63
2021/06/30 12:16:38;;;;;;;;;;;24.40;99.90;;;;;;5067140;28;19919;-64
2021/06/30 12:19:08;;;;;;;;;;;24.10;99.90;;;;;;5068693;28;19908;-63
2021/06/30 12:21:34;;;;;;;;;;;23.70;99.90;;;;;;5061319;28;19916;-63
2021/06/30 12:24:00;;;;;;;;;;;22.60;99.90;;;;;;5057110;28;19913;-64
2021/06/30 12:26:25;;;;;;;;;;;21.90;99.90;;;;;;5049073;28;19909;-64
2021/06/30 12:28:51;;;;;;;;;;;22.00;99.90;;;;;;5057724;28;19916;-64
2021/06/30 12:31:16;;;;;;;;;;;22.10;99.90;;;;;;5057624;28;20007;-63
2021/06/30 12:33:42;;;;;;;;;;;21.80;99.90;;;;;;5059495;28;20007;-64
2021/06/30 12:36:10;;;;;;;;;;;21.50;99.90;;;;;;5057086;28;19963;-64
2021/06/30 12:38:35;;;;;;;;;;;21.20;99.90;;;;;;5058338;28;19908;-64
2021/06/30 12:41:04;;;;;;;;;;;20.40;99.90;;;;;;5063528;28;20307;-64
2021/06/30 12:43:30;;;;;;;;;;;19.80;99.90;;;;;;5063559;28;20008;-63
2021/06/30 12:45:55;;;;;;;;;;;19.50;99.90;;;;;;5063699;28;19995;-64
2021/06/30 12:48:21;;;;;;;;;;;19.40;99.90;;;;;;5061759;28;20023;-63
2021/06/30 12:50:46;;;;;;;;;;;19.80;99.90;;;;;;5057881;28;19909;-65
2021/06/30 12:53:16;;;;;;;;;;;20.50;99.90;;;;;;5054758;28;19916;-63
2021/06/30 12:55:56;;;;;;;;;;;21.40;99.90;;;;;;5067856;28;20008;-64
2021/06/30 12:58:23;;;;;;;;;;;22.10;99.90;;;;;;5072388;28;19908;-61
2021/06/30 13:00:57;;;;;;;;;;;22.60;99.90;;;;;;5071720;28;19909;-65
2021/06/30 13:03:23;;;;;;;;;;;22.70;99.90;;;;;;5071988;28;19987;-65
2021/06/30 13:05:49;;;;;;;;;;;22.70;99.90;;;;;;5068907;28;20008;-62
2021/06/30 13:08:27;;;;;;;;;;;22.20;99.90;;;;;;5059758;28;19916;-64
2021/06/30 13:11:00;;;;;;;;;;;21.80;99.90;;;;;;5070896;28;19916;-64
2021/06/30 13:13:25;;;;;;;;;;;21.40;99.90;;;;;;5071943;28;19913;-64
2021/06/30 13:16:04;;;;;;;;;;;21.10;99.90;;;;;;5071546;28;19916;-63
2021/06/30 13:18:40;;;;;;;;;;;20.80;99.90;;;;;;5070879;28;20047;-63
2021/06/30 13:21:06;;;;;;;;;;;20.80;99.90;;;;;;5071729;28;19935;-62
2021/06/30 13:23:35;;;;;;;;;;;20.90;99.90;;;;;;5050396;28;19909;-64
2021/06/30 13:26:07;;;;;;;;;;;21.10;99.90;;;;;;5070156;28;19912;-64
2021/06/30 13:29:06;;;;;;;;;;;21.30;99.90;;;;;;5071266;28;19912;-65
2021/06/30 13:34:20;;;;;;;;;;;22.00;99.90;;;;;;5072040;28;19919;-64
2021/06/30 13:36:46;;;;;;;;;;;22.20;99.90;;;;;;5070440;28;19973;-63
2021/06/30 13:39:12;;;;;;;;;;;22.40;99.90;;;;;;5069986;28;20023;-62
2021/06/30 13:41:38;;;;;;;;;;;22.40;99.90;;;;;;5071474;28;20331;-65
2021/06/30 13:44:03;;;;;;;;;;;22.30;99.90;;;;;;5071895;28;19912;-64
2021/06/30 13:46:29;;;;;;;;;;;22.20;99.90;;;;;;5070541;28;19946;-63
2021/06/30 13:48:56;;;;;;;;;;;22.20;99.90;;;;;;5070624;28;19960;-63
2021/06/30 13:51:22;;;;;;;;;;;22.20;99.90;;;;;;5070500;28;19915;-64
2021/06/30 13:53:48;;;;;;;;;;;22.40;99.90;;;;;;5070995;28;20181;-63
2021/06/30 13:56:14;;;;;;;;;;;22.60;99.90;;;;;;5071637;28;19913;-63
2021/06/30 13:58:41;;;;;;;;;;;22.90;99.90;;;;;;5070393;28;20293;-62
2021/06/30 14:01:07;;;;;;;;;;;23.40;99.90;;;;;;5070981;28;20015;-64
2021/06/30 14:03:33;;;;;;;;;;;23.80;99.90;;;;;;5071346;28;20070;-63
2021/06/30 14:05:58;;;;;;;;;;;24.10;99.90;;;;;;5070723;28;19928;-63
2021/06/30 14:08:24;;;;;;;;;;;23.90;99.90;;;;;;5069494;28;20407;-63
2021/06/30 14:10:51;;;;;;;;;;;24.00;99.90;;;;;;5071375;28;19923;-63
2021/06/30 14:13:17;;;;;;;;;;;24.00;99.90;;;;;;5071655;28;19977;-65
2021/06/30 14:15:43;;;;;;;;;;;24.10;99.90;;;;;;5070616;28;19912;-63
2021/06/30 14:18:09;;;;;;;;;;;24.00;99.90;;;;;;5070517;28;20381;-66
2021/06/30 14:20:36;;;;;;;;;;;23.80;99.90;;;;;;5070660;28;20037;-64
2021/06/30 14:23:05;;;;;;;;;;;23.80;99.90;;;;;;5068518;28;19908;-64